createdAt,value
2019-01-18T00:01:28.373Z,1.00
2019-01-18T00:04:00.423Z,1.00
2019-01-18T00:06:31.263Z,0.90
2019-01-18T00:09:02.087Z,0.90
2019-01-18T00:11:34.435Z,0.90
2019-01-18T00:14:05.456Z,0.90
2019-01-18T00:16:38.084Z,0.80
2019-01-18T00:19:08.916Z,0.80
2019-01-18T00:21:39.912Z,0.80
2019-01-18T00:24:10.753Z,0.80
2019-01-18T00:26:41.578Z,0.80
2019-01-18T00:29:12.449Z,0.80
2019-01-18T00:31:43.212Z,0.70
2019-01-18T00:34:14.127Z,0.70
2019-01-18T00:36:44.893Z,0.70
2019-01-18T00:39:15.664Z,0.70
2019-01-18T00:41:46.647Z,0.60
2019-01-18T00:44:18.732Z,0.60
2019-01-18T00:46:49.527Z,0.50
2019-01-18T00:49:20.352Z,0.50
2019-01-18T00:51:51.177Z,0.50
2019-01-18T00:54:22.020Z,0.40
2019-01-18T00:56:53.555Z,0.40
2019-01-18T00:59:24.351Z,0.30
2019-01-18T01:01:55.185Z,0.30
2019-01-18T01:04:27.141Z,0.30
2019-01-18T01:06:58.038Z,0.30
2019-01-18T01:09:28.821Z,0.20
2019-01-18T01:11:59.640Z,0.20
2019-01-18T01:14:30.433Z,0.20
2019-01-18T01:19:24.400Z,0.20
2019-01-18T01:21:55.203Z,0.20
2019-01-18T01:24:26.004Z,0.20
2019-01-18T01:26:58.337Z,0.10
2019-01-18T01:29:30.106Z,0.10
2019-01-18T01:32:00.928Z,0.10
2019-01-18T01:34:31.905Z,0.10
2019-01-18T01:37:03.971Z,0.10
2019-01-18T01:39:34.757Z,0.10
2019-01-18T01:42:05.559Z,0.10
2019-01-18T01:44:36.312Z,0.10
2019-01-18T01:47:07.210Z,0.10
2019-01-18T01:49:39.102Z,0.10
2019-01-18T01:52:09.975Z,0.10
2019-01-18T01:54:40.923Z,0.10
2019-01-18T01:57:12.220Z,0.10
2019-01-18T01:59:49.680Z,0.10
2019-01-18T02:02:16.671Z,0.10
2019-01-18T02:04:48.498Z,0.10
2019-01-18T02:07:20.261Z,0.10
2019-01-18T02:09:51.094Z,0.10
2019-01-18T02:12:21.966Z,0.10
2019-01-18T02:14:52.735Z,0.10
2019-01-18T02:17:23.531Z,0.10
2019-01-18T02:19:54.320Z,0.10
2019-01-18T02:22:25.119Z,0.10
2019-01-18T02:24:55.896Z,0.10
2019-01-18T02:27:26.660Z,0.10
2019-01-18T02:29:58.322Z,0.10
2019-01-18T02:32:29.103Z,0.10
2019-01-18T02:34:59.986Z,0.10
2019-01-18T02:37:30.750Z,0.10
2019-01-18T02:40:01.574Z,0.10
2019-01-18T02:42:32.487Z,0.10
2019-01-18T02:45:03.274Z,0.10
2019-01-18T02:47:34.022Z,0.00
2019-01-18T02:50:05.904Z,0.00
2019-01-18T02:52:36.719Z,0.00
2019-01-18T02:55:08.310Z,-0.10
2019-01-18T02:57:39.209Z,-0.10
2019-01-18T03:00:21.931Z,-0.20
2019-01-18T03:02:53.021Z,-0.20
2019-01-18T03:05:26.221Z,-0.20
2019-01-18T03:07:59.408Z,-0.20
2019-01-18T03:10:31.175Z,-0.20
2019-01-18T03:13:01.925Z,-0.20
2019-01-18T03:15:32.902Z,-0.20
2019-01-18T03:18:03.697Z,-0.20
2019-01-18T03:20:34.571Z,-0.20
2019-01-18T03:23:05.373Z,-0.30
2019-01-18T03:25:36.183Z,-0.30
2019-01-18T03:28:06.952Z,-0.40
2019-01-18T03:30:37.890Z,-0.40
2019-01-18T03:33:08.720Z,-0.50
2019-01-18T03:35:40.755Z,-0.50
2019-01-18T03:38:11.592Z,-0.60
2019-01-18T03:40:42.514Z,-0.60
2019-01-18T03:43:13.284Z,-0.60
2019-01-18T03:45:44.159Z,-0.70
2019-01-18T03:48:14.962Z,-0.70
2019-01-18T03:50:45.712Z,-0.70
2019-01-18T03:53:16.566Z,-0.70
2019-01-18T03:55:47.341Z,-0.70
2019-01-18T03:58:18.203Z,-0.80
2019-01-18T04:00:48.964Z,-0.80
2019-01-18T04:03:19.792Z,-0.80
2019-01-18T04:05:51.701Z,-0.80
2019-01-18T04:08:22.477Z,-0.80
2019-01-18T04:10:53.244Z,-0.80
2019-01-18T04:13:24.026Z,-0.80
2019-01-18T04:15:54.844Z,-0.90
2019-01-18T04:18:25.620Z,-0.90
2019-01-18T04:20:56.382Z,-0.90
2019-01-18T04:23:28.304Z,-0.90
2019-01-18T04:25:59.115Z,-1.00
2019-01-18T04:28:29.927Z,-1.00
2019-01-18T04:31:02.758Z,-1.10
2019-01-18T04:33:33.561Z,-1.10
2019-01-18T04:36:04.631Z,-1.10
2019-01-18T04:38:35.486Z,-1.20
2019-01-18T04:41:06.257Z,-1.20
2019-01-18T04:43:37.030Z,-1.20
2019-01-18T04:46:07.832Z,-1.20
2019-01-18T04:48:38.630Z,-1.30
2019-01-18T04:51:09.435Z,-1.30
2019-01-18T04:53:40.328Z,-1.30
2019-01-18T04:56:11.201Z,-1.30
2019-01-18T04:58:41.965Z,-1.30
2019-01-18T05:01:12.895Z,-1.40
2019-01-18T05:03:43.785Z,-1.40
2019-01-18T05:06:15.672Z,-1.40
2019-01-18T05:08:46.443Z,-1.40
2019-01-18T05:11:17.218Z,-1.40
2019-01-18T05:13:47.997Z,-1.40
2019-01-18T05:16:19.112Z,-1.40
2019-01-18T05:18:49.854Z,-1.50
2019-01-18T05:21:20.683Z,-1.50
2019-01-18T05:23:51.482Z,-1.50
2019-01-18T05:26:22.489Z,-1.50
2019-01-18T05:28:53.293Z,-1.50
2019-01-18T05:31:25.007Z,-1.60
2019-01-18T05:33:55.806Z,-1.60
2019-01-18T05:36:26.579Z,-1.60
2019-01-18T05:38:57.364Z,-1.60
2019-01-18T05:41:28.151Z,-1.60
2019-01-18T05:43:59.138Z,-1.60
2019-01-18T05:46:29.911Z,-1.70
2019-01-18T05:49:00.677Z,-1.70
2019-01-18T05:51:31.666Z,-1.70
2019-01-18T05:54:02.578Z,-1.70
2019-01-18T05:56:34.429Z,-1.70
2019-01-18T05:59:05.212Z,-1.80
2019-01-18T06:01:35.987Z,-1.80
2019-01-18T06:04:06.757Z,-1.70
2019-01-18T06:06:37.997Z,-1.80
2019-01-18T06:09:09.871Z,-1.80
2019-01-18T06:11:41.200Z,-1.80
2019-01-18T06:14:12.010Z,-1.70
2019-01-18T06:16:42.968Z,-1.70
2019-01-18T06:19:13.804Z,-1.80
2019-01-18T06:21:45.699Z,-1.80
2019-01-18T06:24:16.600Z,-1.80
2019-01-18T06:26:47.573Z,-1.80
2019-01-18T06:29:18.384Z,-1.80
2019-01-18T06:31:50.127Z,-1.80
2019-01-18T06:34:21.039Z,-1.80
2019-01-18T06:36:51.803Z,-1.80
2019-01-18T06:39:22.609Z,-1.80
2019-01-18T06:41:54.391Z,-1.80
2019-01-18T06:44:25.546Z,-1.80
2019-01-18T06:46:56.481Z,-1.80
2019-01-18T06:49:27.335Z,-1.80
2019-01-18T06:51:58.247Z,-1.80
2019-01-18T06:54:29.068Z,-1.80
2019-01-18T06:56:59.959Z,-1.80
2019-01-18T06:59:30.794Z,-1.80
2019-01-18T07:02:01.748Z,-1.80
2019-01-18T07:04:32.616Z,-1.80
2019-01-18T07:07:04.427Z,-1.90
2019-01-18T07:09:35.383Z,-1.90
2019-01-18T07:12:06.328Z,-1.90
2019-01-18T07:14:37.124Z,-1.90
2019-01-18T07:17:07.930Z,-1.90
2019-01-18T07:19:38.865Z,-1.80
2019-01-18T07:22:09.690Z,-1.80
2019-01-18T07:24:40.552Z,-1.80
2019-01-18T07:27:11.403Z,-1.80
2019-01-18T07:29:43.314Z,-1.90
2019-01-18T07:32:15.080Z,-1.80
2019-01-18T07:34:46.007Z,-1.90
2019-01-18T07:37:16.863Z,-1.90
2019-01-18T07:39:47.710Z,-1.90
2019-01-18T07:42:18.499Z,-1.90
2019-01-18T07:44:49.428Z,-1.90
2019-01-18T07:47:20.376Z,-1.90
2019-01-18T07:49:51.207Z,-1.90
2019-01-18T07:52:22.005Z,-1.90
2019-01-18T07:54:52.826Z,-1.90
2019-01-18T07:57:23.646Z,-1.90
2019-01-18T07:59:54.419Z,-1.90
2019-01-18T08:02:25.209Z,-1.90
2019-01-18T08:04:55.991Z,-1.80
2019-01-18T08:07:27.419Z,-1.80
2019-01-18T08:09:59.362Z,-1.80
2019-01-18T08:12:30.427Z,-1.80
2019-01-18T08:15:01.209Z,-1.80
2019-01-18T08:17:32.119Z,-1.80
2019-01-18T08:20:02.928Z,-1.80
2019-01-18T08:22:33.738Z,-1.70
2019-01-18T08:25:05.332Z,-1.70
2019-01-18T08:27:36.137Z,-1.70
2019-01-18T08:30:09.841Z,-1.60
2019-01-18T08:32:41.631Z,-1.60
2019-01-18T08:35:13.959Z,-1.50
2019-01-18T08:37:44.871Z,-1.50
2019-01-18T08:40:21.512Z,-1.50
2019-01-18T08:42:52.352Z,-1.40
2019-01-18T08:45:32.267Z,-1.40
2019-01-18T08:48:03.091Z,-1.40
2019-01-18T08:50:33.872Z,-1.40
2019-01-18T08:53:04.666Z,-1.30
2019-01-18T08:55:35.468Z,-1.30
2019-01-18T08:58:06.321Z,-1.20
2019-01-18T09:00:37.120Z,-1.10
2019-01-18T09:03:07.913Z,-1.10
2019-01-18T09:05:38.728Z,-1.00
2019-01-18T09:08:09.523Z,-1.00
2019-01-18T09:10:40.391Z,-0.90
2019-01-18T09:13:11.275Z,-0.90
2019-01-18T09:15:42.057Z,-0.80
2019-01-18T09:18:13.015Z,-0.80
2019-01-18T09:20:43.843Z,-0.70
2019-01-18T09:23:14.653Z,-0.70
2019-01-18T09:25:45.462Z,-0.60
2019-01-18T09:28:16.282Z,-0.50
2019-01-18T09:30:47.170Z,-0.50
2019-01-18T09:33:19.145Z,-0.40
2019-01-18T09:35:50.032Z,-0.30
2019-01-18T09:38:20.953Z,-0.20
2019-01-18T09:40:51.790Z,-0.20
2019-01-18T09:43:22.813Z,-0.10
2019-01-18T09:45:53.748Z,-0.10
2019-01-18T09:48:24.639Z,0.00
2019-01-18T09:50:55.427Z,0.00
2019-01-18T09:53:26.258Z,0.10
2019-01-18T09:55:57.071Z,0.10
2019-01-18T09:58:27.969Z,0.20
2019-01-18T10:00:58.923Z,0.20
2019-01-18T10:03:29.960Z,0.30
2019-01-18T10:06:00.786Z,0.40
2019-01-18T10:08:32.804Z,0.40
2019-01-18T10:11:03.641Z,0.50
2019-01-18T10:13:34.523Z,0.50
2019-01-18T10:16:07.005Z,0.60
2019-01-18T10:18:37.891Z,0.60
2019-01-18T10:21:08.801Z,0.60
2019-01-18T10:23:39.724Z,0.70
2019-01-18T10:26:10.520Z,0.70
2019-01-18T10:28:41.400Z,0.80
2019-01-18T10:31:12.183Z,0.90
2019-01-18T10:33:43.078Z,0.90
2019-01-18T10:36:13.955Z,1.00
2019-01-18T10:38:44.743Z,1.20
2019-01-18T10:41:15.651Z,1.30
2019-01-18T10:43:46.474Z,1.40
2019-01-18T10:46:17.312Z,1.40
2019-01-18T10:48:48.112Z,1.50
2019-01-18T10:51:18.907Z,1.60
2019-01-18T10:53:49.783Z,1.60
2019-01-18T10:56:20.678Z,1.70
2019-01-18T10:58:51.478Z,1.80
2019-01-18T11:01:22.284Z,1.90
2019-01-18T11:03:53.111Z,2.00
2019-01-18T11:06:26.702Z,2.00
2019-01-18T11:08:58.733Z,1.90
2019-01-18T11:11:29.578Z,1.90
2019-01-18T11:14:00.370Z,2.00
2019-01-18T11:16:31.309Z,2.20
2019-01-18T11:19:02.293Z,2.40
2019-01-18T11:21:33.520Z,2.60
2019-01-18T11:24:04.344Z,2.70
2019-01-18T11:26:35.129Z,2.60
2019-01-18T11:29:05.939Z,2.70
2019-01-18T11:31:36.731Z,2.80
2019-01-18T11:34:07.596Z,2.80
2019-01-18T11:36:39.586Z,2.60
2019-01-18T11:39:10.375Z,2.80
2019-01-18T11:41:41.217Z,2.90
2019-01-18T11:44:12.065Z,3.10
2019-01-18T11:46:42.883Z,3.00
2019-01-18T11:49:13.761Z,2.90
2019-01-18T11:51:44.553Z,2.90
2019-01-18T11:54:15.405Z,3.00
2019-01-18T11:56:46.300Z,3.10
2019-01-18T11:59:17.182Z,3.10
2019-01-18T12:01:48.099Z,3.20
2019-01-18T12:04:18.940Z,3.10
2019-01-18T12:06:49.856Z,3.10
2019-01-18T12:09:21.023Z,3.10
2019-01-18T12:11:54.903Z,3.30
2019-01-18T12:14:25.939Z,3.60
2019-01-18T12:16:56.802Z,3.60
2019-01-18T12:19:27.605Z,3.60
2019-01-18T12:21:58.581Z,3.80
2019-01-18T12:24:29.595Z,3.90
2019-01-18T12:27:00.375Z,4.00
2019-01-18T12:29:31.154Z,4.10
2019-01-18T12:32:02.072Z,4.00
2019-01-18T12:34:33.669Z,4.20
2019-01-18T12:37:05.558Z,4.30
2019-01-18T12:39:36.466Z,4.30
2019-01-18T12:42:07.506Z,4.30
2019-01-18T12:44:40.211Z,4.30
2019-01-18T12:47:12.887Z,4.60
2019-01-18T12:49:43.908Z,4.80
2019-01-18T12:52:16.268Z,4.70
2019-01-18T12:54:47.095Z,4.80
2019-01-18T12:57:18.063Z,4.70
2019-01-18T12:59:48.940Z,4.60
2019-01-18T13:02:19.762Z,4.70
2019-01-18T13:04:50.556Z,4.90
2019-01-18T13:07:21.429Z,4.90
2019-01-18T13:09:53.267Z,5.30
2019-01-18T13:12:24.121Z,5.40
2019-01-18T13:14:57.294Z,5.30
2019-01-18T13:17:27.744Z,5.40
2019-01-18T13:19:58.798Z,5.70
2019-01-18T13:22:29.669Z,5.70
2019-01-18T13:25:00.759Z,6.10
2019-01-18T13:27:31.551Z,6.10
2019-01-18T13:30:02.487Z,6.00
2019-01-18T13:32:33.543Z,5.90
2019-01-18T13:35:05.905Z,5.90
2019-01-18T13:37:37.025Z,5.60
2019-01-18T13:40:12.568Z,5.60
2019-01-18T13:42:43.533Z,5.70
2019-01-18T13:45:14.828Z,5.50
2019-01-18T13:47:46.020Z,5.50
2019-01-18T13:50:17.686Z,5.40
2019-01-18T13:52:48.881Z,5.40
2019-01-18T13:55:22.465Z,5.20
2019-01-18T13:57:53.382Z,5.20
2019-01-18T14:00:24.304Z,5.30
2019-01-18T14:02:55.282Z,5.50
2019-01-18T14:05:26.191Z,5.50
2019-01-18T14:07:56.965Z,5.20
2019-01-18T14:10:30.103Z,5.20
2019-01-18T14:13:02.407Z,5.20
2019-01-18T14:15:33.205Z,5.00
2019-01-18T14:18:04.002Z,4.90
2019-01-18T14:20:36.649Z,4.80
2019-01-18T14:23:07.486Z,4.80
2019-01-18T14:25:38.339Z,4.80
2019-01-18T14:28:09.266Z,4.70
2019-01-18T14:30:40.163Z,4.60
2019-01-18T14:33:12.055Z,4.50
2019-01-18T14:35:43.842Z,4.50
2019-01-18T14:38:14.650Z,4.40
2019-01-18T14:40:45.492Z,4.40
2019-01-18T14:43:16.510Z,4.30
2019-01-18T14:45:47.324Z,4.30
2019-01-18T14:48:18.230Z,4.20
2019-01-18T14:50:49.095Z,4.10
2019-01-18T14:53:19.923Z,4.10
2019-01-18T14:55:50.803Z,4.10
2019-01-18T14:58:24.656Z,4.10
2019-01-18T15:00:57.160Z,4.10
2019-01-18T15:03:28.102Z,4.00
2019-01-18T15:05:59.191Z,4.10
2019-01-18T15:08:30.106Z,4.00
2019-01-18T15:11:02.021Z,3.90
2019-01-18T15:13:32.850Z,3.90
2019-01-18T15:16:03.763Z,3.90
2019-01-18T15:18:35.416Z,3.80
2019-01-18T15:21:06.324Z,3.80
2019-01-18T15:23:37.278Z,3.80
2019-01-18T15:26:08.254Z,3.80
2019-01-18T15:28:39.147Z,3.80
2019-01-18T15:31:09.943Z,3.70
2019-01-18T15:33:40.759Z,3.60
2019-01-18T15:36:12.644Z,3.40
2019-01-18T15:38:43.546Z,3.30
2019-01-18T15:41:14.463Z,3.20
2019-01-18T15:43:45.348Z,3.20
2019-01-18T15:46:16.149Z,3.20
2019-01-18T15:48:47.113Z,3.10
2019-01-18T15:51:17.919Z,3.10
2019-01-18T15:53:48.727Z,3.10
2019-01-18T15:56:19.658Z,3.10
2019-01-18T15:58:50.705Z,3.20
2019-01-18T16:01:23.167Z,3.10
2019-01-18T16:03:53.993Z,3.00
2019-01-18T16:06:24.832Z,3.00
2019-01-18T16:08:55.639Z,2.90
2019-01-18T16:11:27.099Z,2.80
2019-01-18T16:13:58.145Z,2.60
2019-01-18T16:16:43.602Z,2.60
2019-01-18T16:19:14.490Z,2.50
2019-01-18T16:21:45.356Z,2.50
2019-01-18T16:24:16.358Z,2.40
2019-01-18T16:26:47.296Z,2.40
2019-01-18T16:29:18.185Z,2.30
2019-01-18T16:31:49.203Z,2.20
2019-01-18T16:34:19.995Z,2.10
2019-01-18T16:36:50.875Z,2.10
2019-01-18T16:39:22.085Z,1.90
2019-01-18T16:41:52.893Z,1.80
2019-01-18T16:44:25.426Z,1.80
2019-01-18T16:46:56.339Z,1.70
2019-01-18T16:49:27.141Z,1.70
2019-01-18T16:51:58.012Z,1.70
2019-01-18T16:54:28.782Z,1.60
2019-01-18T16:56:59.739Z,1.60
2019-01-18T16:59:30.715Z,1.50
2019-01-18T17:02:01.581Z,1.50
2019-01-18T17:04:32.472Z,1.50
2019-01-18T17:07:03.326Z,1.50
2019-01-18T17:09:34.228Z,1.50
2019-01-18T17:12:05.681Z,1.40
2019-01-18T17:14:36.574Z,1.40
2019-01-18T17:17:07.590Z,1.30
2019-01-18T17:19:38.532Z,1.20
2019-01-18T17:22:09.465Z,1.20
2019-01-18T17:24:40.254Z,1.10
2019-01-18T17:27:11.139Z,1.00
2019-01-18T17:29:42.077Z,0.80
2019-01-18T17:32:13.017Z,0.60
2019-01-18T17:34:44.034Z,0.50
2019-01-18T17:37:26.200Z,0.50
2019-01-18T17:40:18.609Z,0.40
2019-01-18T17:43:11.614Z,0.40
2019-01-18T17:46:32.598Z,0.40
2019-01-18T17:49:35.734Z,0.30
2019-01-18T17:53:07.938Z,0.30
2019-01-18T17:56:04.499Z,0.20
2019-01-18T17:58:55.383Z,0.10
2019-01-18T18:02:41.026Z,0.10
2019-01-18T18:05:50.817Z,0.00
2019-01-18T18:08:47.228Z,0.00
2019-01-18T18:45:40.858Z,-0.20
2019-01-18T18:48:31.268Z,-0.30
2019-01-18T18:51:34.432Z,-0.30
2019-01-18T18:54:57.056Z,-0.30
2019-01-18T18:58:12.431Z,-0.30
2019-01-18T19:01:36.550Z,-0.30
2019-01-18T19:04:44.233Z,-0.40
2019-01-18T19:07:48.420Z,-0.40
2019-01-18T19:11:00.207Z,-0.50
2019-01-18T19:14:03.347Z,-0.50
2019-01-18T19:17:30.610Z,-0.50
2019-01-18T19:20:44.274Z,-0.50
2019-01-18T19:23:48.779Z,-0.60
2019-01-18T19:27:09.761Z,-0.60
2019-01-18T19:30:28.820Z,-0.60
2019-01-18T19:33:36.736Z,-0.70
2019-01-18T19:36:46.263Z,-0.70
2019-01-18T19:39:55.599Z,-0.70
2019-01-18T19:43:07.628Z,-0.80
2019-01-18T19:46:27.392Z,-0.80
2019-01-18T19:49:30.958Z,-0.80
2019-01-18T19:52:25.116Z,-0.90
2019-01-18T19:55:48.027Z,-0.90
2019-01-18T19:59:00.032Z,-0.90
2019-01-18T20:02:16.684Z,-0.90
2019-01-18T20:05:39.288Z,-0.90
2019-01-18T20:11:52.905Z,-0.90
2019-01-18T20:14:56.640Z,-0.90
2019-01-18T20:18:10.976Z,-0.90
2019-01-18T20:21:21.955Z,-0.90
2019-01-18T20:24:39.818Z,-0.90
2019-01-18T20:27:47.395Z,-1.00
2019-01-18T20:30:49.176Z,-1.00
2019-01-18T20:33:59.565Z,-1.00
2019-01-18T20:37:29.891Z,-1.10
2019-01-18T20:40:35.859Z,-1.10
2019-01-18T20:43:45.348Z,-1.20
2019-01-18T20:46:59.268Z,-1.20
2019-01-18T20:50:22.605Z,-1.30
2019-01-18T20:53:30.470Z,-1.30
2019-01-18T20:56:50.665Z,-1.40
2019-01-18T20:59:40.974Z,-1.40
2019-01-18T21:02:53.813Z,-1.50
2019-01-18T21:05:38.088Z,-1.50
2019-01-18T21:08:55.725Z,-1.60
2019-01-18T21:11:36.433Z,-1.60
2019-01-18T21:15:00.810Z,-1.60
2019-01-18T21:17:54.774Z,-1.70
2019-01-18T21:21:27.924Z,-1.70
2019-01-18T21:24:30.166Z,-1.70
2019-01-18T21:27:24.825Z,-1.70
2019-01-18T21:30:23.417Z,-1.70
2019-01-18T21:33:34.545Z,-1.70
2019-01-18T21:37:10.832Z,-1.70
2019-01-18T21:40:37.079Z,-1.70
2019-01-18T21:43:41.474Z,-1.70
2019-01-18T21:46:49.042Z,-1.70
2019-01-18T21:49:57.859Z,-1.70
2019-01-18T21:53:08.028Z,-1.70
2019-01-18T21:56:09.399Z,-1.70
2019-01-18T21:59:27.147Z,-1.70
2019-01-18T22:02:24.426Z,-1.70
2019-01-18T22:05:12.310Z,-1.70
2019-01-18T22:08:10.511Z,-1.70
2019-01-18T22:11:08.038Z,-1.70
2019-01-18T22:14:07.027Z,-1.70
2019-01-18T22:17:30.424Z,-1.70
2019-01-18T22:20:47.120Z,-1.70
2019-01-18T22:23:32.727Z,-1.70
2019-01-18T22:26:46.567Z,-1.70
2019-01-18T22:30:00.328Z,-1.70
2019-01-18T22:32:54.255Z,-1.80
2019-01-18T22:35:49.834Z,-1.80
2019-01-18T22:39:05.998Z,-1.80
2019-01-18T22:42:14.342Z,-1.80
2019-01-18T22:45:22.558Z,-1.80
2019-01-18T22:48:49.641Z,-1.80
2019-01-18T22:52:01.933Z,-1.80
2019-01-18T22:55:16.875Z,-1.90
2019-01-18T22:58:34.429Z,-1.90
2019-01-18T23:01:35.954Z,-1.90
2019-01-18T23:04:25.974Z,-1.90
2019-01-18T23:07:49.871Z,-1.90
2019-01-18T23:11:11.155Z,-1.90
2019-01-18T23:14:12.847Z,-2.00
2019-01-18T23:17:19.746Z,-2.00
2019-01-18T23:21:02.444Z,-1.90
2019-01-18T23:24:16.963Z,-1.90
2019-01-18T23:27:34.047Z,-1.90
2019-01-18T23:30:32.440Z,-1.90
2019-01-18T23:33:25.762Z,-1.90
2019-01-18T23:36:36.351Z,-1.90
2019-01-18T23:39:47.261Z,-1.90
2019-01-18T23:43:00.750Z,-1.90
2019-01-18T23:46:10.699Z,-1.90
2019-01-18T23:49:11.456Z,-1.90
2019-01-18T23:52:17.261Z,-1.90
2019-01-18T23:55:38.511Z,-1.90
2019-01-18T23:58:55.002Z,-1.90
